Washington, GA

2:33 PM EST on December 21, 2014 (GMT -0500)
RAWS WASHINGTON GA US | Change Station
CLOSE
Current Station
Personal Weather Station
Location: Tignall, GA
Elevation: 616 ft
Nearby Weather Stations

Elev 616 ft 33.78 °N, 82.81 °W | Updated 31 minutes ago

Overcast
Overcast
56 °F
Feels Like 56 °F
N
6
Wind Variable Wind from ESE
Gusts 12.0 mph

Today
High -- | Low -- °F
--% Chance of Precip.
Yesterday
High -- | Low -- °F
Precip. -- in
7:31 AM 5:26 PM
Waning Crescent, 0% visible
Pressure 30.14 in
Visibility 10.0 miles
Clouds Mostly Cloudy 2500 ft
Dew Point 45 °F
Humidity 67%
Rainfall 0.01 in
Snow Depth Not available.
UV 1 out of 12
Pollen .10 out of 12
Air Quality Not available.
Flu Activity Not available.
METAR KIIY 211915Z AUTO 07007KT 10SM BKN025 14/11 A3014 RMK AO2

More Conditions Fewer Conditions

Pressure 30.14 in
Visibility 10.0 miles
Clouds Mostly Cloudy 2500 ft
Dew Point 45 °F
Humidity 67%
Rainfall 0.01 in
Snow Depth Not available.
UV 1 out of 12
Pollen .10 out of 12
Air Quality Not available.
Flu Activity Not available.
METAR KIIY 211915Z AUTO 07007KT 10SM BKN025 14/11 A3014 RMK AO2

More Conditions Fewer Conditions

10-Day Weather Forecast

Almanac

Astronomy

Dec. 21, 2014 Rise Set
Actual Time
Civil Twilight
Nautical Twilight
Astronomical Twilight
Moon
Length of Visible Light
Length of Day
Tomorrow will be .
, % of the Moon is Illuminated

Today's Extremes

State Highs State Lows

Community

WunderPhotos

Upload Photos

1,779,467 photos uploaded!

WunderBlogs® & News

Nearby

Air Quality

  Air Quality AQ Index Pollutant
Not available.

Snow Depth

Station Depth Elevation

Earthquake Activity

City Distance Mag. Time & Date
Minimum magnitude displayed is 2.5.

Coastal Water Temperatures

Place Temperature

Nearby Weather Stations